This is the latest recevied weather packets stored in our database for station/object KD4WLE. If no packets are shown the sender has not sent any weather packets the latest 10 day(s).
| Time | Temp. | Humidity | Pressure | Rain* | Wind** | Luminosity | Snow |
|---|---|---|---|---|---|---|---|
| 1777663768 | 33.33° C | 47% | 1010.7 hPa | 0 mm | - | 704 W/m² | - |
| 1777663465 | 33.33° C | 47% | 1011.2 hPa | 0 mm | - | 789 W/m² | - |
| 1777663162 | 33.33° C | 47% | 1011.2 hPa | 0 mm | - | 559 W/m² | - |
| 1777662859 | 32.78° C | 48% | 1011.1 hPa | 0 mm | - | 501 W/m² | - |
| 1777662556 | 32.78° C | 48% | 1011.2 hPa | 0 mm | - | 403 W/m² | - |
| 1777662251 | 32.78° C | 50% | 1011.5 hPa | 0 mm | - | 485 W/m² | - |
| 1777661946 | 32.78° C | 50% | 1011.4 hPa | 0 mm | - | 509 W/m² | - |
| 1777661643 | 33.33° C | 49% | 1011.3 hPa | 0 mm | - | 705 W/m² | - |
| 1777661339 | 32.78° C | 51% | 1011.4 hPa | 0 mm | - | 786 W/m² | - |
| 1777661035 | 31.67° C | 51% | 1011.4 hPa | 0 mm | - | 264 W/m² | - |
| 1777660730 | 33.33° C | 50% | 1011.7 hPa | 0 mm | - | 173 W/m² | - |
| 1777660428 | 33.33° C | 51% | 1011.4 hPa | 0 mm | - | 808 W/m² | - |
| 1777660124 | 32.78° C | 51% | 1011.5 hPa | 0 mm | - | 789 W/m² | - |
| 1777659821 | 32.78° C | 52% | 1011.6 hPa | 0 mm | - | 827 W/m² | - |
| 1777659518 | 32.78° C | 52% | 1011.9 hPa | 0 mm | - | 794 W/m² | - |
| 1777659215 | 32.78° C | 51% | 1011.6 hPa | 0 mm | - | 296 W/m² | - |
| 1777658912 | 33.33° C | 52% | 1011.7 hPa | 0 mm | - | 861 W/m² | - |
| 1777658608 | 32.78° C | 53% | 1011.7 hPa | 0 mm | - | 826 W/m² | - |
| 1777658306 | 32.78° C | 54% | 1011.9 hPa | 0 mm | - | 842 W/m² | - |
| 1777658002 | 32.22° C | 56% | 1011.9 hPa | 0 mm | - | 829 W/m² | - |
| 1777657699 | 32.78° C | 53% | 1011.8 hPa | 0 mm | - | 801 W/m² | - |
| 1777657396 | 32.78° C | 53% | 1011.8 hPa | 0 mm | - | 854 W/m² | - |
| 1777657094 | 32.78° C | 52% | 1011.8 hPa | 0 mm | - | 844 W/m² | - |
| 1777656791 | 32.22° C | 55% | 1012 hPa | 0 mm | - | 857 W/m² | - |
| 1777656487 | 32.22° C | 56% | 1011.8 hPa | 0 mm | - | 860 W/m² | - |
* Rain latest hour (hover to see other rain measurements)
** Current wind speed in m/s (hover to see current wind gust speed)